createdAt,value
2023-03-26T00:00:17.540Z,8.89
2023-03-26T00:03:20.567Z,8.78
2023-03-26T00:06:28.899Z,8.77
2023-03-26T00:09:31.847Z,8.72
2023-03-26T00:12:34.866Z,8.66
2023-03-26T00:15:38.047Z,8.77
2023-03-26T00:18:42.664Z,8.78
2023-03-26T00:21:45.520Z,8.77
2023-03-26T00:24:50.790Z,8.76
2023-03-26T00:27:53.947Z,8.62
2023-03-26T00:31:01.608Z,8.63
2023-03-26T00:34:05.677Z,8.59
2023-03-26T00:37:08.912Z,8.50
2023-03-26T00:40:12.264Z,8.51
2023-03-26T00:43:21.036Z,8.50
2023-03-26T00:46:29.311Z,8.39
2023-03-26T00:49:32.065Z,8.51
2023-03-26T00:52:36.178Z,8.56
2023-03-26T00:55:39.164Z,8.55
2023-03-26T00:58:42.386Z,8.31
2023-03-26T01:01:45.151Z,8.16
2023-03-26T01:04:55.629Z,8.05
2023-03-26T01:07:58.322Z,7.98
2023-03-26T01:11:06.978Z,7.92
2023-03-26T01:14:11.952Z,7.86
2023-03-26T01:17:15.720Z,7.68
2023-03-26T01:20:26.894Z,7.49
2023-03-26T01:23:44.311Z,7.58
2023-03-26T01:27:01.956Z,7.73
2023-03-26T01:30:20.053Z,7.71
2023-03-26T01:33:44.049Z,7.53
2023-03-26T01:37:02.772Z,7.46
2023-03-26T01:40:14.685Z,7.71
2023-03-26T01:43:36.131Z,7.72
2023-03-26T01:46:39.986Z,7.71
2023-03-26T01:49:42.991Z,7.93
2023-03-26T01:52:45.628Z,8.08
2023-03-26T01:55:49.768Z,8.15
2023-03-26T01:59:01.156Z,8.18
2023-03-26T02:02:29.107Z,8.19
2023-03-26T02:06:01.731Z,8.23
2023-03-26T02:09:09.035Z,8.17
2023-03-26T02:12:14.759Z,8.27
2023-03-26T02:15:17.723Z,8.27
2023-03-26T02:18:24.287Z,8.45
2023-03-26T02:21:28.135Z,8.43
2023-03-26T02:24:30.734Z,8.25
2023-03-26T02:27:34.012Z,8.20
2023-03-26T02:30:37.811Z,8.33
2023-03-26T02:33:40.932Z,8.28
2023-03-26T02:36:43.628Z,8.31
2023-03-26T02:39:46.938Z,8.21
2023-03-26T02:42:50.038Z,8.12
2023-03-26T02:45:53.595Z,7.99
2023-03-26T02:49:01.190Z,7.94
2023-03-26T02:52:06.529Z,7.93
2023-03-26T02:55:09.635Z,7.75
2023-03-26T02:58:17.467Z,7.50
2023-03-26T03:01:20.296Z,7.30
2023-03-26T03:04:23.728Z,7.30
2023-03-26T03:07:26.352Z,7.43
2023-03-26T03:10:32.757Z,7.17
2023-03-26T03:13:35.989Z,7.03
2023-03-26T03:16:38.953Z,6.84
2023-03-26T03:19:41.799Z,6.69
2023-03-26T03:22:44.773Z,6.71
2023-03-26T03:25:48.017Z,6.61
2023-03-26T03:28:51.131Z,6.54
2023-03-26T03:31:53.996Z,6.44
2023-03-26T03:34:58.973Z,6.32
2023-03-26T03:38:01.984Z,6.41
2023-03-26T03:41:06.534Z,6.50
2023-03-26T03:44:09.770Z,6.51
2023-03-26T03:47:13.884Z,6.54
2023-03-26T03:50:17.403Z,6.67
2023-03-26T03:53:29.395Z,6.59
2023-03-26T03:56:32.484Z,6.54
2023-03-26T03:59:37.628Z,6.46
2023-03-26T04:02:43.011Z,6.53
2023-03-26T04:05:49.506Z,6.47
2023-03-26T04:08:52.833Z,6.39
2023-03-26T04:11:56.095Z,6.33
2023-03-26T04:15:00.218Z,6.29
2023-03-26T04:18:03.591Z,6.31
2023-03-26T04:21:07.451Z,6.29
2023-03-26T04:24:11.047Z,6.28
2023-03-26T04:27:18.921Z,6.31
2023-03-26T04:30:22.007Z,6.31
2023-03-26T04:33:25.191Z,6.30
2023-03-26T04:36:33.681Z,6.24
2023-03-26T04:39:36.354Z,6.15
2023-03-26T04:42:46.362Z,6.14
2023-03-26T04:45:49.982Z,6.08
2023-03-26T04:48:54.891Z,6.08
2023-03-26T04:51:57.476Z,6.08
2023-03-26T04:55:13.786Z,6.09
2023-03-26T04:58:16.461Z,6.19
2023-03-26T05:01:21.614Z,6.24
2023-03-26T05:04:25.016Z,6.38
2023-03-26T05:07:27.975Z,6.62
2023-03-26T05:10:31.053Z,6.81
2023-03-26T05:13:34.544Z,7.03
2023-03-26T05:16:39.623Z,7.27
2023-03-26T05:19:42.724Z,7.59
2023-03-26T05:22:45.581Z,7.90
2023-03-26T05:25:49.985Z,8.18
2023-03-26T05:28:52.998Z,8.29
2023-03-26T05:31:56.267Z,8.43
2023-03-26T05:34:59.107Z,8.63
2023-03-26T05:38:02.096Z,8.85
2023-03-26T05:41:08.462Z,8.93
2023-03-26T05:44:11.585Z,8.91
2023-03-26T05:47:14.355Z,8.82
2023-03-26T05:50:17.549Z,8.91
2023-03-26T05:53:22.459Z,9.12
2023-03-26T05:56:40.628Z,9.41
2023-03-26T05:59:46.221Z,9.65
2023-03-26T06:02:52.013Z,9.95
2023-03-26T06:06:01.121Z,10.20
2023-03-26T06:09:04.602Z,10.17
2023-03-26T06:12:14.742Z,10.23
2023-03-26T06:15:17.471Z,10.37
2023-03-26T06:18:20.773Z,10.46
2023-03-26T06:21:23.887Z,10.76
2023-03-26T06:24:27.274Z,10.88
2023-03-26T06:27:33.019Z,11.00
2023-03-26T06:30:37.278Z,11.10
2023-03-26T06:33:41.315Z,11.27
2023-03-26T06:36:44.641Z,11.54
2023-03-26T06:39:47.561Z,11.77
2023-03-26T06:43:06.859Z,11.67
2023-03-26T06:46:13.407Z,11.64
2023-03-26T06:49:18.238Z,12.02
2023-03-26T06:52:21.672Z,12.20
2023-03-26T06:55:25.530Z,12.42
2023-03-26T06:58:29.739Z,12.24
2023-03-26T07:01:52.964Z,11.99
2023-03-26T07:05:13.107Z,11.65
2023-03-26T07:08:26.543Z,11.80
2023-03-26T07:11:45.981Z,12.11
2023-03-26T07:14:50.192Z,12.34
2023-03-26T07:17:53.112Z,12.56
2023-03-26T07:20:56.848Z,12.71
2023-03-26T07:24:00.530Z,12.83
2023-03-26T07:27:17.486Z,13.15
2023-03-26T07:30:20.487Z,13.34
2023-03-26T07:33:49.298Z,13.40
2023-03-26T07:37:02.385Z,13.78
2023-03-26T07:40:35.306Z,13.70
2023-03-26T07:43:46.980Z,13.68
2023-03-26T07:46:53.482Z,14.21
2023-03-26T07:50:00.290Z,14.55
2023-03-26T07:53:03.911Z,14.53
2023-03-26T07:56:06.835Z,14.42
2023-03-26T07:59:10.571Z,14.42
2023-03-26T08:02:46.979Z,14.36
2023-03-26T08:05:51.221Z,14.22
2023-03-26T08:09:03.579Z,14.22
2023-03-26T08:12:43.504Z,14.31
2023-03-26T08:15:53.623Z,14.16
2023-03-26T08:19:10.874Z,14.35
2023-03-26T08:22:26.438Z,14.22
2023-03-26T08:25:44.687Z,14.17
2023-03-26T08:29:07.461Z,13.73
2023-03-26T08:32:15.074Z,13.51
2023-03-26T08:35:17.974Z,13.53
2023-03-26T08:38:22.116Z,13.67
2023-03-26T08:42:00.429Z,13.66
2023-03-26T08:45:38.773Z,13.94
2023-03-26T08:48:47.345Z,13.88
2023-03-26T08:52:35.496Z,13.90
2023-03-26T08:55:43.801Z,13.84
2023-03-26T08:59:17.229Z,14.07
2023-03-26T09:02:53.052Z,13.78
2023-03-26T09:06:02.875Z,14.28
2023-03-26T09:09:46.066Z,14.59
2023-03-26T09:13:13.338Z,14.95
2023-03-26T09:17:01.664Z,15.21
2023-03-26T09:20:48.232Z,15.25
2023-03-26T09:24:14.957Z,15.55
2023-03-26T09:27:26.622Z,15.76
2023-03-26T09:31:03.443Z,15.41
2023-03-26T09:34:21.399Z,15.44
2023-03-26T09:37:33.074Z,15.67
2023-03-26T09:40:42.520Z,15.38
2023-03-26T09:44:09.428Z,15.64
2023-03-26T09:47:15.520Z,15.95
2023-03-26T09:50:35.335Z,15.93
2023-03-26T09:53:47.410Z,16.09
2023-03-26T09:56:59.500Z,16.03
2023-03-26T10:00:16.761Z,15.38
2023-03-26T10:03:47.482Z,15.48
2023-03-26T10:07:05.149Z,15.90
2023-03-26T10:10:20.591Z,16.28
2023-03-26T10:13:39.930Z,16.18
2023-03-26T10:17:18.124Z,16.50
2023-03-26T10:20:38.037Z,16.39
2023-03-26T10:23:53.248Z,16.03
2023-03-26T10:27:14.408Z,15.59
2023-03-26T10:30:36.516Z,15.91
2023-03-26T10:33:54.157Z,15.40
2023-03-26T10:37:19.479Z,15.25
2023-03-26T10:40:36.230Z,15.26
2023-03-26T10:44:19.717Z,15.27
2023-03-26T10:47:47.566Z,15.43
2023-03-26T10:51:21.215Z,15.44
2023-03-26T10:54:40.672Z,15.68
2023-03-26T10:57:54.255Z,16.06
2023-03-26T11:01:22.538Z,15.56
2023-03-26T11:04:43.340Z,15.29
2023-03-26T11:08:21.031Z,15.00
2023-03-26T11:11:47.501Z,15.47
2023-03-26T11:14:59.789Z,15.74
2023-03-26T11:18:02.978Z,15.78
2023-03-26T11:21:22.762Z,15.43
2023-03-26T11:24:41.357Z,15.42
2023-03-26T11:28:01.771Z,15.48
2023-03-26T11:31:28.953Z,16.01
2023-03-26T11:34:43.396Z,15.76
2023-03-26T11:37:57.234Z,15.08
2023-03-26T11:41:03.095Z,14.84
2023-03-26T11:44:11.415Z,15.38
2023-03-26T11:47:19.468Z,15.92
2023-03-26T11:50:27.144Z,16.27
2023-03-26T11:53:34.620Z,16.72
2023-03-26T11:57:04.905Z,17.03
2023-03-26T12:00:18.240Z,17.77
2023-03-26T12:03:21.219Z,18.14
2023-03-26T12:06:27.596Z,18.31
2023-03-26T12:09:30.965Z,18.42
2023-03-26T12:12:38.421Z,17.99
2023-03-26T12:15:44.525Z,17.52
2023-03-26T12:18:59.610Z,17.31
2023-03-26T12:22:02.507Z,17.51
2023-03-26T12:25:28.880Z,18.05
2023-03-26T12:28:32.818Z,17.63
2023-03-26T12:31:51.453Z,17.72
2023-03-26T12:34:54.378Z,17.98
2023-03-26T12:38:13.522Z,18.21
2023-03-26T12:44:51.154Z,17.82
2023-03-26T12:44:58.967Z,17.72
2023-03-26T12:48:04.559Z,17.92
2023-03-26T12:51:29.473Z,18.14
2023-03-26T12:55:12.166Z,18.42
2023-03-26T12:58:33.873Z,18.15
2023-03-26T13:01:53.919Z,18.44
2023-03-26T13:05:21.312Z,18.65
2023-03-26T13:08:30.023Z,18.43
2023-03-26T13:12:04.323Z,18.88
2023-03-26T13:15:20.736Z,18.61
2023-03-26T13:18:31.546Z,18.28
2023-03-26T13:21:53.761Z,18.15
2023-03-26T13:25:19.770Z,18.19
2023-03-26T13:28:48.792Z,18.13
2023-03-26T13:31:54.452Z,18.15
2023-03-26T13:35:18.236Z,17.95
2023-03-26T13:38:40.018Z,17.68
2023-03-26T13:41:49.389Z,18.03
2023-03-26T13:45:09.166Z,18.18
2023-03-26T13:48:18.121Z,18.24
2023-03-26T13:51:44.818Z,18.82
2023-03-26T13:54:57.865Z,19.41
2023-03-26T13:58:12.248Z,20.04
2023-03-26T14:01:21.803Z,19.66
2023-03-26T14:04:38.919Z,20.19
2023-03-26T14:07:50.605Z,20.53
2023-03-26T14:11:06.362Z,20.02
2023-03-26T14:14:25.648Z,20.14
2023-03-26T14:17:41.600Z,19.53
2023-03-26T14:21:00.139Z,19.75
2023-03-26T14:24:34.384Z,19.79
2023-03-26T14:27:57.937Z,19.85
2023-03-26T14:31:39.063Z,20.20
2023-03-26T14:35:16.537Z,21.57
2023-03-26T14:38:42.804Z,22.81
2023-03-26T14:41:56.860Z,24.12
2023-03-26T14:45:37.148Z,23.67
2023-03-26T14:49:07.023Z,22.49
2023-03-26T14:52:15.853Z,22.20
2023-03-26T14:55:48.583Z,22.84
2023-03-26T14:59:19.304Z,23.62
2023-03-26T15:02:39.750Z,23.60
2023-03-26T15:06:04.060Z,22.56
2023-03-26T15:09:32.217Z,23.38
2023-03-26T15:13:12.337Z,23.94
2023-03-26T15:17:00.068Z,24.95
2023-03-26T15:20:32.010Z,25.63
2023-03-26T15:23:43.949Z,26.55
2023-03-26T15:26:56.836Z,26.55
2023-03-26T15:30:29.511Z,26.55
2023-03-26T15:33:44.271Z,26.04
2023-03-26T15:37:22.479Z,23.44
2023-03-26T15:40:36.388Z,23.04
2023-03-26T15:47:34.297Z,21.74
2023-03-26T15:50:56.652Z,21.16
2023-03-26T15:54:09.280Z,21.49
2023-03-26T15:57:30.669Z,21.80
2023-03-26T16:00:48.976Z,22.43
2023-03-26T16:04:09.365Z,22.20
2023-03-26T16:07:49.824Z,21.98
2023-03-26T16:10:56.766Z,21.75
2023-03-26T16:14:35.475Z,20.94
2023-03-26T16:18:10.280Z,19.45
2023-03-26T16:21:31.812Z,18.67
2023-03-26T16:24:39.960Z,18.03
2023-03-26T16:27:44.541Z,17.31
2023-03-26T16:31:23.611Z,16.80
2023-03-26T16:34:57.304Z,16.41
2023-03-26T16:38:11.529Z,16.10
2023-03-26T16:41:19.206Z,16.01
2023-03-26T16:44:52.626Z,15.93
2023-03-26T16:48:10.170Z,15.65
2023-03-26T16:51:50.524Z,15.34
2023-03-26T16:55:02.240Z,15.13
2023-03-26T16:58:29.840Z,14.91
2023-03-26T17:01:32.645Z,14.87
2023-03-26T17:04:36.958Z,14.74
2023-03-26T17:07:48.227Z,14.65
2023-03-26T17:11:01.964Z,14.61
2023-03-26T17:14:25.668Z,14.37
2023-03-26T17:17:45.046Z,14.35
2023-03-26T17:21:21.937Z,14.25
2023-03-26T17:24:53.143Z,14.09
2023-03-26T17:28:27.514Z,13.96
2023-03-26T17:31:44.488Z,13.96
2023-03-26T17:35:00.588Z,14.04
2023-03-26T17:38:04.515Z,14.05
2023-03-26T17:41:09.281Z,13.96
2023-03-26T17:44:40.415Z,14.14
2023-03-26T17:47:52.918Z,14.07
2023-03-26T17:51:16.907Z,13.86
2023-03-26T17:54:28.597Z,13.85
2023-03-26T17:57:46.787Z,13.86
2023-03-26T18:00:53.013Z,13.82
2023-03-26T18:04:00.738Z,13.82
2023-03-26T18:07:28.245Z,13.83
2023-03-26T18:10:56.341Z,13.79
2023-03-26T18:14:02.166Z,13.74
2023-03-26T18:17:06.248Z,13.73
2023-03-26T18:20:21.037Z,13.71
2023-03-26T18:23:35.146Z,13.85
2023-03-26T18:26:42.571Z,13.85
2023-03-26T18:30:02.689Z,13.86
2023-03-26T18:33:15.415Z,13.82
2023-03-26T18:36:27.973Z,13.98
2023-03-26T18:39:30.567Z,14.07
2023-03-26T18:42:34.316Z,14.00
2023-03-26T18:45:39.654Z,13.97
2023-03-26T18:48:43.899Z,13.90
2023-03-26T18:51:56.692Z,13.86
2023-03-26T18:55:02.958Z,13.80
2023-03-26T18:58:27.841Z,13.77
2023-03-26T19:01:36.669Z,13.79
2023-03-26T19:04:41.763Z,13.87
2023-03-26T19:07:50.252Z,13.86
2023-03-26T19:10:54.707Z,13.71
2023-03-26T19:14:17.450Z,13.68
2023-03-26T19:17:21.189Z,13.74
2023-03-26T19:20:29.001Z,13.66
2023-03-26T19:23:36.312Z,13.72
2023-03-26T19:26:39.810Z,13.64
2023-03-26T19:29:43.967Z,13.61
2023-03-26T19:32:53.820Z,13.69
2023-03-26T19:36:31.582Z,13.61
2023-03-26T19:39:41.681Z,13.47
2023-03-26T19:42:45.130Z,13.39
2023-03-26T19:45:59.624Z,13.29
2023-03-26T19:49:04.465Z,13.18
2023-03-26T19:52:47.445Z,13.15
2023-03-26T19:55:55.685Z,13.09
2023-03-26T19:58:59.300Z,13.10
2023-03-26T20:02:01.983Z,12.93
2023-03-26T20:05:05.351Z,12.79
2023-03-26T20:08:15.829Z,12.80
2023-03-26T20:11:24.094Z,12.76
2023-03-26T20:14:26.837Z,12.95
2023-03-26T20:17:30.932Z,12.90
2023-03-26T20:20:34.371Z,12.97
2023-03-26T20:23:37.500Z,12.87
2023-03-26T20:26:40.278Z,12.84
2023-03-26T20:29:43.255Z,12.79
2023-03-26T20:32:45.918Z,12.78
2023-03-26T20:35:48.809Z,12.71
2023-03-26T20:38:51.729Z,12.69
2023-03-26T20:41:55.249Z,12.69
2023-03-26T20:44:57.953Z,12.61
2023-03-26T20:48:02.783Z,12.67
2023-03-26T20:51:05.841Z,12.62
2023-03-26T20:54:23.585Z,12.72
2023-03-26T20:57:26.516Z,12.74
2023-03-26T21:00:29.903Z,12.61
2023-03-26T21:03:33.066Z,12.53
2023-03-26T21:06:35.950Z,12.50
2023-03-26T21:09:39.371Z,12.53
2023-03-26T21:13:13.059Z,12.50
2023-03-26T21:16:16.023Z,12.65
2023-03-26T21:19:19.311Z,12.68
2023-03-26T21:22:35.263Z,12.73
2023-03-26T21:26:09.605Z,12.79
2023-03-26T21:29:12.724Z,12.83
2023-03-26T21:32:15.763Z,12.68
2023-03-26T21:35:18.822Z,12.71
2023-03-26T21:38:23.346Z,12.59
2023-03-26T21:41:36.494Z,12.40
2023-03-26T21:44:42.670Z,11.71
2023-03-26T21:47:46.316Z,11.07
2023-03-26T21:50:51.026Z,10.63
2023-03-26T21:53:53.922Z,10.34
2023-03-26T21:57:39.824Z,10.41
2023-03-26T22:01:11.385Z,10.33
2023-03-26T22:04:28.169Z,10.31
2023-03-26T22:07:49.733Z,10.51
2023-03-26T22:10:52.839Z,10.49
2023-03-26T22:13:56.772Z,10.48
2023-03-26T22:16:59.670Z,10.59
2023-03-26T22:20:07.247Z,10.67
2023-03-26T22:23:10.862Z,10.69
2023-03-26T22:26:13.372Z,10.61
2023-03-26T22:29:16.845Z,10.59
2023-03-26T22:32:19.679Z,10.52
2023-03-26T22:35:22.975Z,10.34
2023-03-26T22:38:25.603Z,10.13
2023-03-26T22:41:29.745Z,9.94
2023-03-26T22:44:32.346Z,9.66
2023-03-26T22:47:35.584Z,9.38
2023-03-26T22:50:38.476Z,9.17
2023-03-26T22:53:41.292Z,9.13
2023-03-26T22:56:43.954Z,8.97
2023-03-26T22:59:47.028Z,8.94
2023-03-26T23:02:50.034Z,9.01
2023-03-26T23:06:01.901Z,8.96
2023-03-26T23:09:07.024Z,8.87
2023-03-26T23:12:10.773Z,8.84
2023-03-26T23:15:14.093Z,8.83
2023-03-26T23:18:18.217Z,8.88
2023-03-26T23:21:22.070Z,8.88
2023-03-26T23:24:26.594Z,8.91
2023-03-26T23:27:29.468Z,8.90
2023-03-26T23:30:34.113Z,8.93
2023-03-26T23:33:38.981Z,8.87
2023-03-26T23:36:42.310Z,8.79
2023-03-26T23:39:48.615Z,8.78
2023-03-26T23:42:51.619Z,8.79
2023-03-26T23:45:56.984Z,8.77
2023-03-26T23:49:02.467Z,8.75
2023-03-26T23:52:05.706Z,8.75
2023-03-26T23:55:09.071Z,8.88
2023-03-26T23:58:11.750Z,8.73
